createdAt,value
2022-12-07T00:00:36.738Z,44.12
2022-12-07T00:01:36.765Z,44.12
2022-12-07T00:02:36.897Z,44.12
2022-12-07T00:03:36.918Z,44.22
2022-12-07T00:04:36.829Z,44.24
2022-12-07T00:05:36.834Z,44.24
2022-12-07T00:06:36.861Z,44.24
2022-12-07T00:07:37.004Z,44.24
2022-12-07T00:08:36.884Z,44.24
2022-12-07T00:09:36.892Z,44.24
2022-12-07T00:10:36.901Z,44.24
2022-12-07T00:11:36.940Z,44.24
2022-12-07T00:12:36.948Z,44.24
2022-12-07T00:13:36.955Z,44.34
2022-12-07T00:14:36.984Z,44.34
2022-12-07T00:15:36.988Z,44.34
2022-12-07T00:16:37.067Z,44.34
2022-12-07T00:17:37.039Z,44.34
2022-12-07T00:18:37.049Z,44.34
2022-12-07T00:19:37.085Z,44.34
2022-12-07T00:20:37.083Z,44.34
2022-12-07T00:21:37.103Z,44.34
2022-12-07T00:22:37.106Z,44.34
2022-12-07T00:23:37.130Z,44.44
2022-12-07T00:24:37.158Z,44.44
2022-12-07T00:25:37.178Z,44.44
2022-12-07T00:26:37.203Z,44.44
2022-12-07T00:27:37.235Z,44.44
2022-12-07T00:28:37.251Z,44.44
2022-12-07T00:29:37.262Z,44.44
2022-12-07T00:30:37.282Z,44.44
2022-12-07T00:31:37.350Z,44.44
2022-12-07T00:32:37.310Z,44.44
2022-12-07T00:33:37.339Z,44.44
2022-12-07T00:34:37.311Z,44.54
2022-12-07T00:35:37.329Z,44.54
2022-12-07T00:36:37.353Z,44.54
2022-12-07T00:37:37.353Z,44.54
2022-12-07T00:38:37.358Z,44.54
2022-12-07T00:39:37.387Z,44.54
2022-12-07T00:40:37.375Z,44.54
2022-12-07T00:41:37.401Z,44.54
2022-12-07T00:42:37.411Z,44.56
2022-12-07T00:43:37.441Z,44.56
2022-12-07T00:44:37.445Z,44.56
2022-12-07T00:45:37.553Z,44.56
2022-12-07T00:46:37.483Z,44.56
2022-12-07T00:47:37.496Z,44.56
2022-12-07T00:48:37.523Z,44.67
2022-12-07T00:49:37.543Z,44.67
2022-12-07T00:50:37.556Z,44.67
2022-12-07T00:51:37.590Z,44.67
2022-12-07T00:52:37.603Z,44.67
2022-12-07T00:53:41.248Z,44.67
2022-12-07T00:54:37.659Z,44.67
2022-12-07T00:55:37.680Z,44.67
2022-12-07T00:56:37.712Z,44.67
2022-12-07T00:57:37.680Z,44.67
2022-12-07T00:58:37.682Z,44.67
2022-12-07T00:59:37.725Z,44.67
2022-12-07T01:00:37.736Z,44.67
2022-12-07T01:01:37.844Z,44.67
2022-12-07T01:02:37.783Z,44.67
2022-12-07T01:03:37.848Z,44.67
2022-12-07T01:04:37.792Z,44.67
2022-12-07T01:05:37.804Z,44.76
2022-12-07T01:06:37.829Z,44.76
2022-12-07T01:07:37.946Z,44.76
2022-12-07T01:08:37.844Z,44.76
2022-12-07T01:09:37.866Z,44.76
2022-12-07T01:10:37.895Z,44.76
2022-12-07T01:11:37.913Z,44.76
2022-12-07T01:12:37.931Z,44.76
2022-12-07T01:13:37.942Z,44.76
2022-12-07T01:14:37.972Z,44.87
2022-12-07T01:15:38.002Z,44.87
2022-12-07T01:16:38.040Z,44.87
2022-12-07T01:17:38.042Z,44.87
2022-12-07T01:18:38.064Z,44.87
2022-12-07T01:19:38.057Z,44.87
2022-12-07T01:20:38.071Z,44.87
2022-12-07T01:21:38.088Z,44.87
2022-12-07T01:22:38.112Z,44.87
2022-12-07T01:23:38.139Z,44.89
2022-12-07T01:24:38.170Z,44.89
2022-12-07T01:25:38.178Z,44.87
2022-12-07T01:26:38.199Z,44.89
2022-12-07T01:27:38.224Z,44.89
2022-12-07T01:28:38.246Z,44.89
2022-12-07T01:29:38.250Z,44.89
2022-12-07T01:30:38.281Z,44.99
2022-12-07T01:31:38.267Z,44.99
2022-12-07T01:32:38.262Z,44.99
2022-12-07T01:33:38.276Z,44.99
2022-12-07T01:34:38.329Z,44.99
2022-12-07T01:35:38.292Z,44.99
2022-12-07T01:36:38.317Z,44.99
2022-12-07T01:37:38.329Z,44.99
2022-12-07T01:38:38.346Z,44.99
2022-12-07T01:39:38.373Z,44.99
2022-12-07T01:40:38.365Z,45.09
2022-12-07T01:41:38.395Z,45.09
2022-12-07T01:42:38.412Z,45.09
2022-12-07T01:43:38.434Z,45.09
2022-12-07T01:44:38.532Z,45.09
2022-12-07T01:45:38.484Z,45.09
2022-12-07T01:46:38.573Z,45.09
2022-12-07T01:47:38.573Z,45.09
2022-12-07T01:48:38.514Z,45.09
2022-12-07T01:49:38.552Z,45.09
2022-12-07T01:50:38.528Z,45.09
2022-12-07T01:51:38.543Z,45.09
2022-12-07T01:52:38.577Z,45.18
2022-12-07T01:53:38.590Z,45.18
2022-12-07T01:54:38.637Z,45.18
2022-12-07T01:55:38.597Z,45.18
2022-12-07T01:56:38.617Z,45.18
2022-12-07T01:57:38.625Z,45.18
2022-12-07T01:58:38.639Z,45.18
2022-12-07T01:59:38.654Z,45.18
2022-12-07T02:00:38.693Z,45.18
2022-12-07T02:01:38.749Z,45.18
2022-12-07T02:02:38.762Z,45.18
2022-12-07T02:03:38.778Z,45.18
2022-12-07T02:04:38.771Z,45.29
2022-12-07T02:05:38.796Z,45.18
2022-12-07T02:06:38.824Z,45.29
2022-12-07T02:07:38.918Z,45.31
2022-12-07T02:08:38.838Z,45.31
2022-12-07T02:09:38.884Z,45.31
2022-12-07T02:10:38.849Z,45.31
2022-12-07T02:11:38.862Z,45.31
2022-12-07T02:12:38.872Z,45.31
2022-12-07T02:13:38.892Z,45.41
2022-12-07T02:14:38.920Z,45.41
2022-12-07T02:15:38.991Z,45.41
2022-12-07T02:16:38.908Z,45.41
2022-12-07T02:17:38.911Z,45.41
2022-12-07T02:18:38.933Z,45.41
2022-12-07T02:19:38.976Z,45.41
2022-12-07T02:20:38.964Z,45.41
2022-12-07T02:21:38.983Z,45.41
2022-12-07T02:22:38.994Z,45.41
2022-12-07T02:23:39.011Z,45.41
2022-12-07T02:24:39.025Z,45.41
2022-12-07T02:25:39.046Z,45.41
2022-12-07T02:26:39.053Z,45.41
2022-12-07T02:27:39.083Z,45.51
2022-12-07T02:28:39.092Z,45.41
2022-12-07T02:29:39.116Z,45.41
2022-12-07T02:30:39.189Z,45.51
2022-12-07T02:31:39.135Z,45.41
2022-12-07T02:32:39.135Z,45.51
2022-12-07T02:33:39.147Z,45.51
2022-12-07T02:34:39.162Z,45.51
2022-12-07T02:35:39.192Z,45.51
2022-12-07T02:36:39.850Z,45.51
2022-12-07T02:37:39.187Z,45.51
2022-12-07T02:38:39.213Z,45.51
2022-12-07T02:39:39.270Z,45.51
2022-12-07T02:40:39.260Z,45.51
2022-12-07T02:41:39.278Z,45.51
2022-12-07T02:42:39.283Z,45.51
2022-12-07T02:43:39.278Z,45.61
2022-12-07T02:44:39.273Z,45.61
2022-12-07T02:45:39.285Z,45.61
2022-12-07T02:46:39.428Z,45.51
2022-12-07T02:47:39.318Z,45.61
2022-12-07T02:48:39.345Z,45.51
2022-12-07T02:49:39.368Z,45.51
2022-12-07T02:50:39.399Z,45.51
2022-12-07T02:51:39.450Z,45.51
2022-12-07T02:52:39.419Z,45.41
2022-12-07T02:53:39.429Z,45.41
2022-12-07T02:54:39.455Z,45.29
2022-12-07T02:55:39.448Z,45.18
2022-12-07T02:56:39.491Z,45.18
2022-12-07T02:57:39.463Z,45.06
2022-12-07T02:58:39.488Z,44.87
2022-12-07T02:59:39.503Z,44.74
2022-12-07T03:00:39.498Z,44.54
2022-12-07T03:01:39.618Z,44.32
2022-12-07T03:02:39.678Z,44.22
2022-12-07T03:03:39.553Z,44.02
2022-12-07T03:04:39.589Z,43.80
2022-12-07T03:05:39.598Z,43.70
2022-12-07T03:06:39.624Z,43.60
2022-12-07T03:07:39.747Z,43.38
2022-12-07T03:08:39.653Z,43.38
2022-12-07T03:09:39.666Z,43.18
2022-12-07T03:10:39.735Z,43.05
2022-12-07T03:11:39.700Z,43.05
2022-12-07T03:12:39.714Z,42.96
2022-12-07T03:13:39.734Z,42.85
2022-12-07T03:14:39.760Z,42.85
2022-12-07T03:15:39.908Z,42.74
2022-12-07T03:16:39.788Z,42.74
2022-12-07T03:17:39.808Z,42.63
2022-12-07T03:18:39.823Z,42.63
2022-12-07T03:19:39.837Z,42.54
2022-12-07T03:20:39.871Z,42.63
2022-12-07T03:21:39.882Z,42.54
2022-12-07T03:22:39.911Z,42.54
2022-12-07T03:23:39.957Z,42.41
2022-12-07T03:24:39.948Z,42.41
2022-12-07T03:25:39.982Z,42.32
2022-12-07T03:26:39.990Z,42.32
2022-12-07T03:27:40.004Z,42.32
2022-12-07T03:28:40.026Z,42.32
2022-12-07T03:29:40.061Z,42.32
2022-12-07T03:30:40.224Z,42.32
2022-12-07T03:31:40.189Z,42.32
2022-12-07T03:32:40.087Z,42.32
2022-12-07T03:33:40.075Z,42.32
2022-12-07T03:34:40.083Z,42.32
2022-12-07T03:35:40.113Z,42.32
2022-12-07T03:36:40.115Z,42.32
2022-12-07T03:37:40.132Z,42.32
2022-12-07T03:38:40.131Z,42.32
2022-12-07T03:39:40.188Z,42.32
2022-12-07T03:40:40.183Z,42.32
2022-12-07T03:41:45.050Z,42.32
2022-12-07T03:42:40.212Z,42.32
2022-12-07T03:43:40.258Z,42.29
2022-12-07T03:44:40.266Z,42.32
2022-12-07T03:45:40.293Z,42.32
2022-12-07T03:46:40.376Z,42.32
2022-12-07T03:47:40.337Z,42.32
2022-12-07T03:48:40.335Z,42.32
2022-12-07T03:49:40.339Z,42.32
2022-12-07T03:50:40.384Z,42.32
2022-12-07T03:51:40.340Z,42.32
2022-12-07T03:52:40.368Z,42.29
2022-12-07T03:53:40.344Z,42.32
2022-12-07T03:54:40.351Z,42.29
2022-12-07T03:55:40.384Z,42.29
2022-12-07T03:56:40.390Z,42.41
2022-12-07T03:57:40.419Z,42.41
2022-12-07T03:58:40.447Z,42.41
2022-12-07T03:59:40.470Z,42.41
2022-12-07T04:00:40.498Z,42.41
2022-12-07T04:01:40.552Z,42.40
2022-12-07T04:02:40.631Z,42.40
2022-12-07T04:03:40.564Z,42.32
2022-12-07T04:04:40.594Z,42.40
2022-12-07T04:05:40.613Z,42.40
2022-12-07T04:06:40.647Z,42.41
2022-12-07T04:07:40.733Z,42.41
2022-12-07T04:08:40.672Z,42.41
2022-12-07T04:09:40.709Z,42.41
2022-12-07T04:10:40.730Z,42.41
2022-12-07T04:11:40.776Z,42.41
2022-12-07T04:12:40.781Z,42.41
2022-12-07T04:13:40.806Z,42.41
2022-12-07T04:14:40.826Z,42.41
2022-12-07T04:15:40.854Z,42.41
2022-12-07T04:16:44.543Z,42.52
2022-12-07T04:17:40.852Z,42.52
2022-12-07T04:18:40.888Z,42.52
2022-12-07T04:19:40.870Z,42.52
2022-12-07T04:20:40.885Z,42.52
2022-12-07T04:21:40.918Z,42.52
2022-12-07T04:22:40.930Z,42.52
2022-12-07T04:23:40.959Z,42.52
2022-12-07T04:24:40.963Z,42.52
2022-12-07T04:25:40.985Z,42.52
2022-12-07T04:26:40.994Z,42.61
2022-12-07T04:27:41.022Z,42.52
2022-12-07T04:28:41.019Z,42.52
2022-12-07T04:29:41.031Z,42.61
2022-12-07T04:30:41.051Z,42.61
2022-12-07T04:31:41.112Z,42.61
2022-12-07T04:32:41.054Z,42.61
2022-12-07T04:33:41.075Z,42.61
2022-12-07T04:34:41.098Z,42.61
2022-12-07T04:35:41.097Z,42.61
2022-12-07T04:36:41.119Z,42.71
2022-12-07T04:37:41.133Z,42.61
2022-12-07T04:38:41.820Z,42.61
2022-12-07T04:39:41.158Z,42.71
2022-12-07T04:40:41.165Z,42.71
2022-12-07T04:41:41.177Z,42.71
2022-12-07T04:42:41.171Z,42.71
2022-12-07T04:43:41.206Z,42.71
2022-12-07T04:44:41.203Z,42.71
2022-12-07T04:45:41.204Z,42.71
2022-12-07T04:46:41.373Z,42.71
2022-12-07T04:47:41.222Z,42.71
2022-12-07T04:48:41.249Z,42.83
2022-12-07T04:49:41.225Z,42.83
2022-12-07T04:50:46.004Z,42.82
2022-12-07T04:51:41.222Z,42.82
2022-12-07T04:52:41.249Z,42.83
2022-12-07T04:53:41.271Z,42.83
2022-12-07T04:54:41.282Z,42.83
2022-12-07T04:55:41.303Z,42.83
2022-12-07T04:56:41.337Z,42.83
2022-12-07T04:57:41.446Z,42.93
2022-12-07T04:58:41.358Z,42.93
2022-12-07T04:59:45.489Z,42.83
2022-12-07T05:00:41.430Z,42.93
2022-12-07T05:01:41.483Z,42.83
2022-12-07T05:02:41.432Z,42.93
2022-12-07T05:03:41.442Z,42.93
2022-12-07T05:04:41.461Z,42.93
2022-12-07T05:05:41.475Z,42.93
2022-12-07T05:06:41.500Z,42.93
2022-12-07T05:07:41.581Z,42.93
2022-12-07T05:08:41.547Z,42.93
2022-12-07T05:09:41.534Z,42.93
2022-12-07T05:10:41.561Z,42.93
2022-12-07T05:11:41.655Z,42.93
2022-12-07T05:12:41.575Z,42.93
2022-12-07T05:13:41.608Z,43.04
2022-12-07T05:14:41.634Z,42.93
2022-12-07T05:15:41.665Z,43.04
2022-12-07T05:16:41.842Z,43.04
2022-12-07T05:17:41.677Z,43.04
2022-12-07T05:18:41.688Z,43.04
2022-12-07T05:19:41.717Z,43.04
2022-12-07T05:20:42.768Z,43.04
2022-12-07T05:21:41.771Z,43.04
2022-12-07T05:22:41.787Z,42.93
2022-12-07T05:23:41.789Z,42.93
2022-12-07T05:24:41.780Z,42.83
2022-12-07T05:25:41.810Z,42.91
2022-12-07T05:26:41.823Z,42.82
2022-12-07T05:27:41.839Z,42.82
2022-12-07T05:28:41.853Z,42.61
2022-12-07T05:29:41.855Z,42.61
2022-12-07T05:30:41.857Z,42.61
2022-12-07T05:31:42.022Z,42.61
2022-12-07T05:32:41.907Z,42.49
2022-12-07T05:33:41.923Z,42.40
2022-12-07T05:34:41.938Z,42.29
2022-12-07T05:35:41.964Z,42.29
2022-12-07T05:36:41.952Z,42.19
2022-12-07T05:37:41.969Z,42.19
2022-12-07T05:38:41.996Z,42.18
2022-12-07T05:39:41.970Z,41.97
2022-12-07T05:40:41.998Z,41.88
2022-12-07T05:41:42.014Z,41.88
2022-12-07T05:42:42.034Z,41.77
2022-12-07T05:43:42.046Z,41.66
2022-12-07T05:44:42.076Z,41.66
2022-12-07T05:45:42.139Z,41.66
2022-12-07T05:46:42.060Z,41.55
2022-12-07T05:47:42.100Z,41.55
2022-12-07T05:48:42.109Z,41.55
2022-12-07T05:49:42.082Z,41.46
2022-12-07T05:50:42.095Z,41.46
2022-12-07T05:51:42.120Z,41.44
2022-12-07T05:52:42.125Z,41.44
2022-12-07T05:53:42.149Z,41.33
2022-12-07T05:54:42.186Z,41.33
2022-12-07T05:55:42.200Z,41.33
2022-12-07T05:56:42.217Z,41.33
2022-12-07T05:57:42.213Z,41.33
2022-12-07T05:58:42.283Z,41.33
2022-12-07T05:59:42.251Z,41.33
2022-12-07T06:02:08.418Z,41.33
2022-12-07T06:03:08.332Z,41.24
2022-12-07T06:04:08.209Z,41.33
2022-12-07T06:05:08.213Z,41.24
2022-12-07T06:06:08.306Z,41.33
2022-12-07T06:07:08.222Z,41.24
2022-12-07T06:08:08.289Z,41.33
2022-12-07T06:09:08.246Z,41.33
2022-12-07T06:10:08.252Z,41.33
2022-12-07T06:11:08.278Z,41.33
2022-12-07T06:12:08.324Z,41.33
2022-12-07T06:13:08.315Z,41.33
2022-12-07T06:14:08.343Z,41.33
2022-12-07T06:15:08.344Z,41.33
2022-12-07T06:16:08.480Z,41.44
2022-12-07T06:17:08.474Z,41.44
2022-12-07T06:18:08.386Z,41.44
2022-12-07T06:19:08.418Z,41.44
2022-12-07T06:20:08.418Z,41.44
2022-12-07T06:21:08.448Z,41.44
2022-12-07T06:22:08.488Z,41.44
2022-12-07T06:23:08.488Z,41.44
2022-12-07T06:24:08.483Z,41.44
2022-12-07T06:25:09.033Z,41.44
2022-12-07T06:26:08.528Z,41.44
2022-12-07T06:27:08.557Z,41.44
2022-12-07T06:28:08.721Z,41.44
2022-12-07T06:29:08.574Z,41.53
2022-12-07T06:30:08.615Z,41.44
2022-12-07T06:31:13.616Z,41.53
2022-12-07T06:32:08.718Z,41.53
2022-12-07T06:33:08.645Z,41.53
2022-12-07T06:34:08.659Z,41.53
2022-12-07T06:35:08.711Z,41.53
2022-12-07T06:36:08.704Z,41.63
2022-12-07T06:37:08.723Z,41.63
2022-12-07T06:38:08.843Z,41.63
2022-12-07T06:39:08.839Z,41.63
2022-12-07T06:40:08.829Z,41.63
2022-12-07T06:41:08.879Z,41.63
2022-12-07T06:42:08.838Z,41.63
2022-12-07T06:43:08.836Z,41.63
2022-12-07T06:44:08.784Z,41.63
2022-12-07T06:45:08.818Z,41.75
2022-12-07T06:46:08.946Z,41.75
2022-12-07T06:48:08.939Z,41.75
2022-12-07T06:49:08.872Z,41.75
2022-12-07T06:50:08.879Z,41.75
2022-12-07T06:51:08.930Z,41.75
2022-12-07T06:52:09.014Z,41.85
2022-12-07T06:53:08.935Z,41.75
2022-12-07T06:54:08.946Z,41.85
2022-12-07T06:55:08.958Z,41.85
2022-12-07T06:56:08.967Z,41.85
2022-12-07T06:57:08.955Z,41.85
2022-12-07T06:58:08.972Z,41.85
2022-12-07T06:59:09.040Z,41.85
2022-12-07T07:00:08.993Z,41.96
2022-12-07T07:01:09.135Z,41.85
2022-12-07T07:02:09.079Z,41.85
2022-12-07T07:03:09.017Z,41.85
2022-12-07T07:04:09.020Z,41.85
2022-12-07T07:05:09.058Z,41.85
2022-12-07T07:06:09.024Z,41.85
2022-12-07T07:07:09.090Z,41.85
2022-12-07T07:08:24.653Z,41.85
2022-12-07T07:09:09.134Z,41.85
2022-12-07T07:10:09.081Z,41.75
2022-12-07T07:11:09.113Z,41.75
2022-12-07T07:12:09.127Z,41.75
2022-12-07T07:13:09.137Z,41.85
2022-12-07T07:14:09.167Z,41.85
2022-12-07T07:15:09.187Z,41.85
2022-12-07T07:16:09.214Z,41.96
2022-12-07T07:17:09.332Z,41.96
2022-12-07T07:18:09.254Z,41.96
2022-12-07T07:19:09.277Z,41.96
2022-12-07T07:20:09.267Z,41.96
2022-12-07T07:21:09.278Z,41.96
2022-12-07T07:22:09.308Z,41.96
2022-12-07T07:23:09.339Z,42.07
2022-12-07T07:24:09.341Z,42.05
2022-12-07T07:25:09.376Z,42.07
2022-12-07T07:26:09.377Z,42.07
2022-12-07T07:27:09.457Z,42.07
2022-12-07T07:28:09.402Z,42.07
2022-12-07T07:29:09.412Z,42.07
2022-12-07T07:30:09.432Z,42.07
2022-12-07T07:31:09.535Z,42.07
2022-12-07T07:32:09.475Z,42.18
2022-12-07T07:33:09.489Z,42.07
2022-12-07T07:34:09.504Z,42.18
2022-12-07T07:35:09.526Z,42.18
2022-12-07T07:36:09.512Z,42.07
2022-12-07T07:37:09.520Z,42.18
2022-12-07T07:38:09.632Z,42.18
2022-12-07T07:39:09.634Z,42.18
2022-12-07T07:40:09.530Z,42.18
2022-12-07T07:41:09.609Z,42.18
2022-12-07T07:42:09.567Z,42.07
2022-12-07T07:43:09.571Z,42.07
2022-12-07T07:44:09.606Z,42.07
2022-12-07T07:45:09.608Z,41.96
2022-12-07T07:46:09.653Z,41.75
2022-12-07T07:47:09.608Z,41.75
2022-12-07T07:48:09.624Z,41.66
2022-12-07T07:49:09.635Z,41.53
2022-12-07T07:50:09.662Z,41.44
2022-12-07T07:51:09.672Z,41.33
2022-12-07T07:52:09.667Z,41.33
2022-12-07T07:53:09.933Z,41.31
2022-12-07T07:54:09.698Z,41.11
2022-12-07T07:55:09.726Z,41.11
2022-12-07T07:56:09.737Z,41.02
2022-12-07T07:57:09.714Z,40.92
2022-12-07T07:58:09.717Z,41.00
2022-12-07T07:59:09.718Z,40.89
2022-12-07T08:00:09.735Z,40.80
2022-12-07T08:01:09.861Z,40.80
2022-12-07T08:02:09.795Z,40.70
2022-12-07T08:03:09.773Z,40.70
2022-12-07T08:04:09.809Z,40.59
2022-12-07T08:05:09.916Z,40.48
2022-12-07T08:06:09.838Z,40.38
2022-12-07T08:07:09.865Z,40.38
2022-12-07T08:08:10.011Z,40.28
2022-12-07T08:09:09.892Z,40.28
2022-12-07T08:10:09.897Z,40.28
2022-12-07T08:11:10.033Z,40.28
2022-12-07T08:12:09.899Z,40.28
2022-12-07T08:13:09.912Z,40.28
2022-12-07T08:14:09.937Z,40.18
2022-12-07T08:15:09.943Z,40.16
2022-12-07T08:16:09.998Z,40.16
2022-12-07T08:17:10.858Z,40.16
2022-12-07T08:18:10.036Z,40.16
2022-12-07T08:19:10.068Z,40.16
2022-12-07T08:20:10.022Z,40.16
2022-12-07T08:21:10.050Z,40.06
2022-12-07T08:22:10.061Z,40.06
2022-12-07T08:23:11.009Z,40.16
2022-12-07T08:24:10.078Z,40.06
2022-12-07T08:25:10.086Z,40.06
2022-12-07T08:26:10.089Z,40.06
2022-12-07T08:27:10.132Z,40.06
2022-12-07T08:28:10.106Z,40.06
2022-12-07T08:29:10.141Z,40.06
2022-12-07T08:30:10.103Z,40.16
2022-12-07T08:31:10.202Z,40.26
2022-12-07T08:32:10.206Z,40.06
2022-12-07T08:33:10.169Z,40.06
2022-12-07T08:34:10.289Z,40.16
2022-12-07T08:35:10.199Z,40.16
2022-12-07T08:36:10.204Z,40.26
2022-12-07T08:37:10.252Z,40.26
2022-12-07T08:38:10.279Z,38.68
2022-12-07T08:40:10.264Z,38.42
2022-12-07T08:41:10.286Z,39.04
2022-12-07T08:42:10.405Z,39.15
2022-12-07T08:43:10.352Z,39.26
2022-12-07T08:44:10.354Z,39.06
2022-12-07T08:45:10.340Z,39.36
2022-12-07T08:46:10.402Z,38.76
2022-12-07T08:47:10.404Z,38.98
2022-12-07T08:48:10.392Z,39.31
2022-12-07T08:49:10.391Z,39.93
2022-12-07T08:50:10.403Z,39.55
2022-12-07T08:51:10.464Z,39.55
2022-12-07T08:52:10.422Z,39.35
2022-12-07T08:53:10.428Z,39.25
2022-12-07T08:54:10.461Z,39.57
2022-12-07T08:55:10.539Z,39.87
2022-12-07T08:56:10.514Z,39.57
2022-12-07T08:57:10.520Z,39.17
2022-12-07T08:58:10.500Z,38.97
2022-12-07T08:59:10.548Z,39.39
2022-12-07T09:00:10.562Z,39.18
2022-12-07T09:01:10.599Z,38.89
2022-12-07T09:02:10.721Z,38.79
2022-12-07T09:03:10.568Z,38.59
2022-12-07T09:04:10.598Z,39.09
2022-12-07T09:05:18.619Z,38.77
2022-12-07T09:06:10.841Z,38.57
2022-12-07T09:07:10.810Z,38.17
2022-12-07T09:08:10.732Z,38.17
2022-12-07T09:09:10.702Z,38.37
2022-12-07T09:10:10.636Z,38.17
2022-12-07T09:11:10.623Z,38.49
2022-12-07T09:12:10.660Z,38.67
2022-12-07T09:13:10.690Z,38.77
2022-12-07T09:14:10.661Z,38.77
2022-12-07T09:15:10.724Z,39.25
2022-12-07T09:16:10.795Z,38.65
2022-12-07T09:17:10.688Z,37.55
2022-12-07T09:18:10.695Z,37.55
2022-12-07T09:19:10.779Z,37.66
2022-12-07T09:20:10.738Z,37.37
2022-12-07T09:21:10.768Z,37.96
2022-12-07T09:22:10.779Z,37.55
2022-12-07T09:23:10.829Z,38.45
2022-12-07T09:24:10.936Z,39.23
2022-12-07T09:25:10.847Z,39.61
2022-12-07T09:26:11.249Z,39.79
2022-12-07T09:27:10.813Z,39.39
2022-12-07T09:28:10.814Z,39.07
2022-12-07T09:29:10.817Z,39.06
2022-12-07T09:30:10.851Z,38.66
2022-12-07T09:31:26.877Z,37.44
2022-12-07T09:32:11.995Z,35.86
2022-12-07T09:33:10.879Z,35.58
2022-12-07T09:34:10.953Z,35.49
2022-12-07T09:35:10.892Z,35.33
2022-12-07T09:36:10.983Z,35.44
2022-12-07T09:37:10.948Z,35.86
2022-12-07T09:38:10.975Z,36.16
2022-12-07T09:39:10.990Z,36.08
2022-12-07T09:40:11.006Z,36.08
2022-12-07T09:41:11.028Z,36.18
2022-12-07T09:42:11.050Z,36.30
2022-12-07T09:43:11.073Z,36.20
2022-12-07T09:44:11.067Z,36.60
2022-12-07T09:45:11.060Z,36.72
2022-12-07T09:46:11.187Z,36.72
2022-12-07T09:47:11.284Z,37.00
2022-12-07T09:48:11.112Z,37.38
2022-12-07T09:49:11.116Z,37.57
2022-12-07T09:50:11.136Z,37.35
2022-12-07T09:51:11.145Z,37.03
2022-12-07T09:52:11.196Z,36.91
2022-12-07T09:53:11.180Z,36.81
2022-12-07T09:54:11.168Z,36.49
2022-12-07T09:55:11.211Z,36.47
2022-12-07T09:56:11.187Z,36.16
2022-12-07T09:57:11.187Z,36.06
2022-12-07T09:58:11.164Z,35.94
2022-12-07T09:59:11.192Z,35.94
2022-12-07T10:00:11.279Z,35.72
2022-12-07T10:01:11.261Z,35.83
2022-12-07T10:02:11.316Z,35.72
2022-12-07T10:03:11.288Z,35.81
2022-12-07T10:04:11.285Z,35.71
2022-12-07T10:05:11.386Z,35.61
2022-12-07T10:06:11.349Z,35.79
2022-12-07T10:07:11.259Z,35.59
2022-12-07T10:08:11.352Z,35.69
2022-12-07T10:09:11.363Z,35.79
2022-12-07T10:10:11.305Z,35.88
2022-12-07T10:11:11.290Z,35.97
2022-12-07T10:12:11.297Z,36.07
2022-12-07T10:13:11.333Z,36.18
2022-12-07T10:14:11.350Z,36.27
2022-12-07T10:15:11.352Z,36.37
2022-12-07T10:16:11.400Z,36.47
2022-12-07T10:17:11.346Z,36.57
2022-12-07T10:18:11.394Z,36.55
2022-12-07T10:19:11.385Z,36.65
2022-12-07T10:20:11.386Z,36.76
2022-12-07T10:21:11.377Z,36.76
2022-12-07T10:22:11.400Z,36.85
2022-12-07T10:23:11.427Z,36.95
2022-12-07T10:24:11.467Z,36.95
2022-12-07T10:25:11.471Z,37.05
2022-12-07T10:26:11.491Z,37.05
2022-12-07T10:27:11.497Z,37.15
2022-12-07T10:28:11.504Z,37.25
2022-12-07T10:29:11.574Z,37.15
2022-12-07T10:30:11.535Z,37.25
2022-12-07T10:31:11.637Z,37.35
2022-12-07T10:32:11.562Z,37.35
2022-12-07T10:33:11.539Z,37.45
2022-12-07T10:34:11.598Z,37.43
2022-12-07T10:35:11.573Z,37.43
2022-12-07T10:36:11.582Z,37.34
2022-12-07T10:37:11.645Z,37.34
2022-12-07T10:38:11.608Z,37.34
2022-12-07T10:39:11.648Z,37.34
2022-12-07T10:40:11.657Z,37.34
2022-12-07T10:41:11.617Z,37.34
2022-12-07T10:42:11.673Z,37.34
2022-12-07T10:43:11.632Z,37.32
2022-12-07T10:44:11.620Z,37.32
2022-12-07T10:45:11.705Z,37.34
2022-12-07T10:46:14.966Z,37.41
2022-12-07T10:47:11.748Z,37.34
2022-12-07T10:48:11.712Z,37.41
2022-12-07T10:49:11.698Z,37.41
2022-12-07T10:50:11.680Z,37.41
2022-12-07T10:51:11.711Z,37.41
2022-12-07T10:52:11.705Z,37.43
2022-12-07T10:53:11.686Z,37.53
2022-12-07T10:54:11.672Z,37.53
2022-12-07T10:55:11.694Z,37.53
2022-12-07T10:56:11.715Z,37.53
2022-12-07T10:57:11.687Z,37.63
2022-12-07T10:58:11.682Z,37.63
2022-12-07T10:59:11.682Z,37.63
2022-12-07T11:00:11.646Z,37.63
2022-12-07T11:01:11.735Z,37.73
2022-12-07T11:02:11.804Z,37.63
2022-12-07T11:03:11.736Z,37.73
2022-12-07T11:04:11.738Z,37.73
2022-12-07T11:05:11.767Z,37.73
2022-12-07T11:06:11.774Z,37.73
2022-12-07T11:07:11.829Z,37.73
2022-12-07T11:08:12.014Z,37.83
2022-12-07T11:09:11.901Z,37.83
2022-12-07T11:10:11.873Z,37.83
2022-12-07T11:11:11.892Z,37.83
2022-12-07T11:12:12.028Z,37.83
2022-12-07T11:13:11.896Z,37.93
2022-12-07T11:14:11.940Z,37.93
2022-12-07T11:15:11.903Z,37.83
2022-12-07T11:16:12.024Z,37.93
2022-12-07T11:17:11.929Z,37.93
2022-12-07T11:18:11.915Z,37.93
2022-12-07T11:19:11.896Z,37.93
2022-12-07T11:20:11.916Z,37.93
2022-12-07T11:21:11.955Z,37.93
2022-12-07T11:22:12.027Z,38.03
2022-12-07T11:23:12.016Z,38.03
2022-12-07T11:24:12.020Z,38.03
2022-12-07T11:25:12.010Z,38.03
2022-12-07T11:26:12.041Z,38.03
2022-12-07T11:27:12.050Z,38.13
2022-12-07T11:28:12.069Z,38.13
2022-12-07T11:29:12.068Z,38.03
2022-12-07T11:30:12.074Z,38.15
2022-12-07T11:31:12.119Z,38.15
2022-12-07T11:32:12.168Z,38.13
2022-12-07T11:33:12.142Z,38.15
2022-12-07T11:34:12.125Z,38.15
2022-12-07T11:35:12.180Z,38.25
2022-12-07T11:36:12.226Z,38.15
2022-12-07T11:37:12.208Z,38.15
2022-12-07T11:38:12.193Z,38.25
2022-12-07T11:39:12.226Z,38.25
2022-12-07T11:40:12.232Z,38.25
2022-12-07T11:41:12.247Z,38.25
2022-12-07T11:42:12.274Z,38.25
2022-12-07T11:43:12.272Z,38.35
2022-12-07T11:44:12.272Z,38.35
2022-12-07T11:45:12.293Z,38.35
2022-12-07T11:46:12.351Z,38.35
2022-12-07T11:47:12.923Z,38.35
2022-12-07T11:48:12.293Z,38.35
2022-12-07T11:49:12.278Z,38.45
2022-12-07T11:50:12.335Z,38.45
2022-12-07T11:51:12.414Z,38.45
2022-12-07T11:52:12.324Z,38.56
2022-12-07T11:53:12.327Z,38.56
2022-12-07T11:54:12.380Z,38.56
2022-12-07T11:55:12.377Z,38.67
2022-12-07T11:56:12.387Z,38.67
2022-12-07T11:57:16.816Z,38.67
2022-12-07T11:58:12.495Z,38.67
2022-12-07T11:59:12.627Z,38.67
2022-12-07T12:00:12.670Z,38.67
2022-12-07T12:01:12.500Z,38.76
2022-12-07T12:02:12.699Z,38.76
2022-12-07T12:03:12.697Z,38.76
2022-12-07T12:04:12.598Z,38.76
2022-12-07T12:05:12.465Z,38.86
2022-12-07T12:06:12.516Z,38.86
2022-12-07T12:10:12.561Z,38.98
2022-12-07T12:11:12.621Z,38.98
2022-12-07T12:15:12.617Z,39.08
2022-12-07T12:16:12.675Z,39.08
2022-12-07T12:17:12.651Z,39.08
2022-12-07T12:18:12.708Z,39.08
2022-12-07T12:19:12.642Z,39.08
2022-12-07T12:20:12.621Z,39.18
2022-12-07T12:21:12.677Z,39.18
2022-12-07T12:22:12.658Z,39.18
2022-12-07T12:23:12.652Z,39.18
2022-12-07T12:24:12.669Z,39.18
2022-12-07T12:25:12.688Z,39.18
2022-12-07T12:26:12.772Z,39.28
2022-12-07T12:27:12.750Z,39.28
2022-12-07T12:28:12.728Z,39.28
2022-12-07T12:29:12.706Z,39.28
2022-12-07T12:30:12.724Z,39.28
2022-12-07T12:31:12.744Z,39.28
2022-12-07T12:32:12.866Z,39.28
2022-12-07T12:33:12.788Z,39.28
2022-12-07T12:34:12.813Z,39.30
2022-12-07T12:35:12.856Z,39.30
2022-12-07T12:36:12.909Z,39.40
2022-12-07T12:37:12.844Z,39.40
2022-12-07T12:38:12.820Z,39.40
2022-12-07T12:39:12.853Z,39.40
2022-12-07T12:40:12.965Z,39.50
2022-12-07T12:41:12.882Z,39.50
2022-12-07T12:42:12.860Z,39.50
2022-12-07T12:43:12.901Z,39.50
2022-12-07T12:44:12.907Z,39.50
2022-12-07T12:45:12.940Z,39.50
2022-12-07T12:46:13.072Z,39.50
2022-12-07T12:47:13.001Z,39.60
2022-12-07T12:48:12.966Z,39.60
2022-12-07T12:49:13.011Z,39.60
2022-12-07T12:50:13.096Z,39.70
2022-12-07T12:51:13.206Z,39.70
2022-12-07T12:52:13.044Z,39.72
2022-12-07T12:53:13.089Z,39.82
2022-12-07T12:54:13.066Z,39.72
2022-12-07T12:55:13.109Z,39.82
2022-12-07T12:56:13.110Z,39.82
2022-12-07T12:57:13.086Z,39.82
2022-12-07T12:58:13.108Z,39.82
2022-12-07T12:59:13.139Z,39.92
2022-12-07T13:00:13.320Z,39.92
2022-12-07T13:01:13.293Z,40.01
2022-12-07T13:02:13.237Z,40.01